sensor_id;sensor_type;location;lat;lon;timestamp;pressure;altitude;pressure_sealevel;temperature;humidity
64336;BME280;50672;53.362;-6.240;2023-03-22T00:00:37;98711.34;;;11.97;78.82
64336;BME280;50672;53.362;-6.240;2023-03-22T00:03:05;98732.94;;;11.99;78.79
64336;BME280;50672;53.362;-6.240;2023-03-22T00:05:32;98714.44;;;12.01;79.18
64336;BME280;50672;53.362;-6.240;2023-03-22T00:07:58;98695.38;;;12.01;78.83
64336;BME280;50672;53.362;-6.240;2023-03-22T00:10:26;98692.88;;;11.99;78.99
64336;BME280;50672;53.362;-6.240;2023-03-22T00:12:54;98702.09;;;11.98;79.01
64336;BME280;50672;53.362;-6.240;2023-03-22T00:15:21;98714.56;;;11.94;78.94
64336;BME280;50672;53.362;-6.240;2023-03-22T00:17:48;98704.31;;;11.89;79.40
64336;BME280;50672;53.362;-6.240;2023-03-22T00:20:18;98699.34;;;11.86;79.48
64336;BME280;50672;53.362;-6.240;2023-03-22T00:22:46;98709.66;;;11.84;79.56
64336;BME280;50672;53.362;-6.240;2023-03-22T00:25:13;98696.50;;;11.81;79.50
64336;BME280;50672;53.362;-6.240;2023-03-22T00:27:40;98679.53;;;11.79;79.76
64336;BME280;50672;53.362;-6.240;2023-03-22T00:30:08;98694.00;;;11.79;79.90
64336;BME280;50672;53.362;-6.240;2023-03-22T00:32:36;98689.38;;;11.80;79.65
64336;BME280;50672;53.362;-6.240;2023-03-22T00:35:05;98707.63;;;11.79;79.93
64336;BME280;50672;53.362;-6.240;2023-03-22T00:37:32;98690.66;;;11.77;79.65
64336;BME280;50672;53.362;-6.240;2023-03-22T00:39:59;98743.06;;;11.79;79.95
64336;BME280;50672;53.362;-6.240;2023-03-22T00:42:28;98724.13;;;11.85;79.66
64336;BME280;50672;53.362;-6.240;2023-03-22T00:44:54;98726.13;;;11.89;79.80
64336;BME280;50672;53.362;-6.240;2023-03-22T00:47:21;98728.25;;;11.87;79.88
64336;BME280;50672;53.362;-6.240;2023-03-22T00:49:48;98710.94;;;11.82;79.79
64336;BME280;50672;53.362;-6.240;2023-03-22T00:52:15;98751.47;;;11.78;79.47
64336;BME280;50672;53.362;-6.240;2023-03-22T00:54:42;98752.91;;;11.80;79.38
64336;BME280;50672;53.362;-6.240;2023-03-22T00:57:09;98739.03;;;11.82;79.15
64336;BME280;50672;53.362;-6.240;2023-03-22T00:59:38;98754.78;;;11.80;79.20
64336;BME280;50672;53.362;-6.240;2023-03-22T01:02:05;98767.38;;;11.81;79.17
64336;BME280;50672;53.362;-6.240;2023-03-22T01:04:32;98782.91;;;11.80;78.91
64336;BME280;50672;53.362;-6.240;2023-03-22T01:07:01;98807.44;;;11.80;78.80
64336;BME280;50672;53.362;-6.240;2023-03-22T01:09:31;98816.91;;;11.78;78.66
64336;BME280;50672;53.362;-6.240;2023-03-22T01:12:00;98831.31;;;11.67;78.44
64336;BME280;50672;53.362;-6.240;2023-03-22T01:14:27;98849.09;;;11.51;78.12
64336;BME280;50672;53.362;-6.240;2023-03-22T01:16:54;98849.34;;;11.31;77.31
64336;BME280;50672;53.362;-6.240;2023-03-22T01:19:23;98865.25;;;11.15;76.48
64336;BME280;50672;53.362;-6.240;2023-03-22T01:21:50;98878.38;;;11.00;76.06
64336;BME280;50672;53.362;-6.240;2023-03-22T01:24:16;98870.34;;;10.86;74.97
64336;BME280;50672;53.362;-6.240;2023-03-22T01:26:43;98885.50;;;10.75;74.10
64336;BME280;50672;53.362;-6.240;2023-03-22T01:29:10;98911.94;;;10.68;73.44
64336;BME280;50672;53.362;-6.240;2023-03-22T01:31:37;98894.03;;;10.60;72.73
64336;BME280;50672;53.362;-6.240;2023-03-22T01:34:03;98905.59;;;10.49;72.38
64336;BME280;50672;53.362;-6.240;2023-03-22T01:36:30;98886.22;;;10.39;71.87
64336;BME280;50672;53.362;-6.240;2023-03-22T01:38:57;98882.69;;;10.32;71.31
64336;BME280;50672;53.362;-6.240;2023-03-22T01:41:26;98899.03;;;10.25;70.80
64336;BME280;50672;53.362;-6.240;2023-03-22T01:44:17;98902.44;;;10.20;70.57
64336;BME280;50672;53.362;-6.240;2023-03-22T01:46:46;98916.88;;;10.14;70.40
64336;BME280;50672;53.362;-6.240;2023-03-22T01:49:23;98929.00;;;10.12;69.66
64336;BME280;50672;53.362;-6.240;2023-03-22T01:51:55;98935.56;;;10.04;69.54
64336;BME280;50672;53.362;-6.240;2023-03-22T01:54:48;98945.63;;;9.97;69.06
64336;BME280;50672;53.362;-6.240;2023-03-22T01:57:18;98935.00;;;9.88;69.13
64336;BME280;50672;53.362;-6.240;2023-03-22T01:59:45;98936.91;;;9.81;68.32
64336;BME280;50672;53.362;-6.240;2023-03-22T02:02:13;98951.97;;;9.77;68.13
64336;BME280;50672;53.362;-6.240;2023-03-22T02:04:46;98939.25;;;9.71;67.83
64336;BME280;50672;53.362;-6.240;2023-03-22T02:07:16;98954.72;;;9.64;67.50
64336;BME280;50672;53.362;-6.240;2023-03-22T02:09:52;98973.97;;;9.55;66.91
64336;BME280;50672;53.362;-6.240;2023-03-22T02:17:56;98979.69;;;9.34;66.31
64336;BME280;50672;53.362;-6.240;2023-03-22T02:28:53;99006.63;;;9.15;65.04
64336;BME280;50672;53.362;-6.240;2023-03-22T02:34:32;99018.53;;;9.01;64.63
64336;BME280;50672;53.362;-6.240;2023-03-22T02:45:36;99024.13;;;8.86;64.16
64336;BME280;50672;53.362;-6.240;2023-03-22T02:48:16;99032.69;;;8.83;63.88
64336;BME280;50672;53.362;-6.240;2023-03-22T02:50:54;99039.56;;;8.79;64.07
64336;BME280;50672;53.362;-6.240;2023-03-22T02:53:40;99041.88;;;8.75;63.63
64336;BME280;50672;53.362;-6.240;2023-03-22T02:56:35;99042.09;;;8.74;63.83
64336;BME280;50672;53.362;-6.240;2023-03-22T02:59:03;99061.69;;;8.69;63.85
64336;BME280;50672;53.362;-6.240;2023-03-22T03:01:50;99068.75;;;8.63;63.51
64336;BME280;50672;53.362;-6.240;2023-03-22T03:04:40;99063.75;;;8.60;63.53
64336;BME280;50672;53.362;-6.240;2023-03-22T03:07:11;99069.16;;;8.53;63.63
64336;BME280;50672;53.362;-6.240;2023-03-22T03:09:41;99068.31;;;8.53;63.76
64336;BME280;50672;53.362;-6.240;2023-03-22T03:12:13;99084.81;;;8.51;63.68
64336;BME280;50672;53.362;-6.240;2023-03-22T03:14:44;99084.16;;;8.49;63.38
64336;BME280;50672;53.362;-6.240;2023-03-22T03:22:42;99089.50;;;8.36;63.48
64336;BME280;50672;53.362;-6.240;2023-03-22T03:25:22;99105.75;;;8.29;63.76
64336;BME280;50672;53.362;-6.240;2023-03-22T03:31:04;99112.16;;;8.21;63.58
64336;BME280;50672;53.362;-6.240;2023-03-22T03:33:35;99135.94;;;8.19;63.62
64336;BME280;50672;53.362;-6.240;2023-03-22T03:36:09;99114.66;;;8.16;63.71
64336;BME280;50672;53.362;-6.240;2023-03-22T03:38:41;99116.09;;;8.12;63.70
64336;BME280;50672;53.362;-6.240;2023-03-22T03:41:13;99124.78;;;8.08;63.43
64336;BME280;50672;53.362;-6.240;2023-03-22T03:43:42;99142.28;;;8.05;63.20
64336;BME280;50672;53.362;-6.240;2023-03-22T03:46:11;99143.34;;;8.04;63.21
64336;BME280;50672;53.362;-6.240;2023-03-22T03:48:40;99144.16;;;8.04;63.29
64336;BME280;50672;53.362;-6.240;2023-03-22T03:51:08;99148.09;;;8.02;63.29
64336;BME280;50672;53.362;-6.240;2023-03-22T03:53:35;99157.47;;;7.99;63.18
64336;BME280;50672;53.362;-6.240;2023-03-22T03:56:02;99162.66;;;7.94;63.13
64336;BME280;50672;53.362;-6.240;2023-03-22T03:58:29;99168.28;;;7.93;63.16
64336;BME280;50672;53.362;-6.240;2023-03-22T04:00:56;99167.63;;;7.91;62.87
64336;BME280;50672;53.362;-6.240;2023-03-22T04:03:23;99178.88;;;7.87;62.87
64336;BME280;50672;53.362;-6.240;2023-03-22T04:05:50;99180.91;;;7.85;62.83
64336;BME280;50672;53.362;-6.240;2023-03-22T04:08:17;99178.41;;;7.84;63.08
64336;BME280;50672;53.362;-6.240;2023-03-22T04:10:48;99191.53;;;7.80;62.90
64336;BME280;50672;53.362;-6.240;2023-03-22T04:13:15;99193.78;;;7.77;62.99
64336;BME280;50672;53.362;-6.240;2023-03-22T04:15:42;99192.69;;;7.71;62.88
64336;BME280;50672;53.362;-6.240;2023-03-22T04:18:09;99205.59;;;7.69;63.11
64336;BME280;50672;53.362;-6.240;2023-03-22T04:20:36;99202.50;;;7.72;63.13
64336;BME280;50672;53.362;-6.240;2023-03-22T04:23:07;99204.53;;;7.70;63.09
64336;BME280;50672;53.362;-6.240;2023-03-22T04:25:37;99199.97;;;7.70;63.01
64336;BME280;50672;53.362;-6.240;2023-03-22T04:28:04;99207.44;;;7.68;62.88
64336;BME280;50672;53.362;-6.240;2023-03-22T04:30:31;99219.34;;;7.67;62.79
64336;BME280;50672;53.362;-6.240;2023-03-22T04:33:05;99214.69;;;7.61;62.99
64336;BME280;50672;53.362;-6.240;2023-03-22T04:35:33;99216.75;;;7.59;62.98
64336;BME280;50672;53.362;-6.240;2023-03-22T04:38:00;99224.41;;;7.56;63.01
64336;BME280;50672;53.362;-6.240;2023-03-22T04:40:27;99217.97;;;7.57;63.00
64336;BME280;50672;53.362;-6.240;2023-03-22T04:42:57;99224.63;;;7.54;62.87
64336;BME280;50672;53.362;-6.240;2023-03-22T04:45:24;99233.97;;;7.51;62.76
64336;BME280;50672;53.362;-6.240;2023-03-22T04:47:54;99230.63;;;7.49;62.91
64336;BME280;50672;53.362;-6.240;2023-03-22T04:50:21;99229.75;;;7.49;62.89
64336;BME280;50672;53.362;-6.240;2023-03-22T04:52:48;99233.06;;;7.44;62.96
64336;BME280;50672;53.362;-6.240;2023-03-22T04:55:15;99233.06;;;7.44;62.75
64336;BME280;50672;53.362;-6.240;2023-03-22T04:57:42;99247.22;;;7.46;62.87
64336;BME280;50672;53.362;-6.240;2023-03-22T05:00:10;99247.22;;;7.46;62.83
64336;BME280;50672;53.362;-6.240;2023-03-22T05:02:37;99260.31;;;7.43;62.82
64336;BME280;50672;53.362;-6.240;2023-03-22T05:05:07;99248.63;;;7.42;62.81
64336;BME280;50672;53.362;-6.240;2023-03-22T05:07:33;99261.34;;;7.42;62.87
64336;BME280;50672;53.362;-6.240;2023-03-22T05:10:00;99264.44;;;7.39;63.13
64336;BME280;50672;53.362;-6.240;2023-03-22T05:12:28;99268.19;;;7.38;63.16
64336;BME280;50672;53.362;-6.240;2023-03-22T05:14:55;99259.44;;;7.35;63.10
64336;BME280;50672;53.362;-6.240;2023-03-22T05:17:22;99269.41;;;7.35;63.37
64336;BME280;50672;53.362;-6.240;2023-03-22T05:19:49;99273.16;;;7.34;63.51
64336;BME280;50672;53.362;-6.240;2023-03-22T05:22:17;99276.88;;;7.33;63.78
64336;BME280;50672;53.362;-6.240;2023-03-22T05:24:45;99285.38;;;7.30;63.67
64336;BME280;50672;53.362;-6.240;2023-03-22T05:27:12;99282.84;;;7.28;63.87
64336;BME280;50672;53.362;-6.240;2023-03-22T05:29:39;99291.16;;;7.27;63.94
64336;BME280;50672;53.362;-6.240;2023-03-22T05:32:10;99290.13;;;7.28;64.29
64336;BME280;50672;53.362;-6.240;2023-03-22T05:34:37;99284.91;;;7.26;64.24
64336;BME280;50672;53.362;-6.240;2023-03-22T05:37:05;99298.25;;;7.28;64.58
64336;BME280;50672;53.362;-6.240;2023-03-22T05:39:32;99293.03;;;7.26;64.65
64336;BME280;50672;53.362;-6.240;2023-03-22T05:42:19;99284.91;;;7.26;64.59
64336;BME280;50672;53.362;-6.240;2023-03-22T05:45:45;99284.44;;;7.23;64.68
64336;BME280;50672;53.362;-6.240;2023-03-22T05:49:12;99295.28;;;7.23;64.87
64336;BME280;50672;53.362;-6.240;2023-03-22T05:53:06;99289.69;;;7.24;65.17
64336;BME280;50672;53.362;-6.240;2023-03-22T05:56:33;99290.72;;;7.23;65.12
64336;BME280;50672;53.362;-6.240;2023-03-22T06:03:41;99287.00;;;7.24;65.15
64336;BME280;50672;53.362;-6.240;2023-03-22T06:06:48;99289.84;;;7.23;65.17
64336;BME280;50672;53.362;-6.240;2023-03-22T06:09:15;99291.09;;;7.20;65.37
64336;BME280;50672;53.362;-6.240;2023-03-22T06:11:43;99289.22;;;7.21;65.26
64336;BME280;50672;53.362;-6.240;2023-03-22T06:14:11;99284.84;;;7.19;65.15
64336;BME280;50672;53.362;-6.240;2023-03-22T06:16:37;99296.31;;;7.22;65.08
64336;BME280;50672;53.362;-6.240;2023-03-22T06:19:04;99288.41;;;7.20;64.93
64336;BME280;50672;53.362;-6.240;2023-03-22T06:21:31;99287.53;;;7.19;64.95
64336;BME280;50672;53.362;-6.240;2023-03-22T06:23:58;99292.13;;;7.19;64.70
64336;BME280;50672;53.362;-6.240;2023-03-22T06:26:24;99289.41;;;7.19;64.91
64336;BME280;50672;53.362;-6.240;2023-03-22T06:28:51;99285.69;;;7.20;64.80
64336;BME280;50672;53.362;-6.240;2023-03-22T06:31:18;99288.00;;;7.23;64.59
64336;BME280;50672;53.362;-6.240;2023-03-22T06:33:45;99288.44;;;7.27;64.61
64336;BME280;50672;53.362;-6.240;2023-03-22T06:36:12;99283.69;;;7.29;64.42
64336;BME280;50672;53.362;-6.240;2023-03-22T06:38:38;99276.22;;;7.31;64.20
64336;BME280;50672;53.362;-6.240;2023-03-22T06:41:05;99281.63;;;7.31;64.36
64336;BME280;50672;53.362;-6.240;2023-03-22T06:43:33;99284.16;;;7.32;64.35
64336;BME280;50672;53.362;-6.240;2023-03-22T06:45:59;99289.13;;;7.29;64.20
64336;BME280;50672;53.362;-6.240;2023-03-22T06:48:26;99284.53;;;7.29;63.97
64336;BME280;50672;53.362;-6.240;2023-03-22T06:50:53;99285.38;;;7.30;64.18
64336;BME280;50672;53.362;-6.240;2023-03-22T06:53:20;99289.94;;;7.29;64.27
64336;BME280;50672;53.362;-6.240;2023-03-22T06:55:47;99271.84;;;7.30;64.17
64336;BME280;50672;53.362;-6.240;2023-03-22T06:58:14;99278.28;;;7.29;63.96
64336;BME280;50672;53.362;-6.240;2023-03-22T07:00:49;99262.50;;;7.32;64.21
64336;BME280;50672;53.362;-6.240;2023-03-22T07:03:15;99277.31;;;7.36;64.10
64336;BME280;50672;53.362;-6.240;2023-03-22T07:05:42;99269.66;;;7.40;63.98
64336;BME280;50672;53.362;-6.240;2023-03-22T07:08:09;99267.44;;;7.44;64.23
64336;BME280;50672;53.362;-6.240;2023-03-22T07:10:36;99272.66;;;7.45;64.20
64336;BME280;50672;53.362;-6.240;2023-03-22T07:13:03;99268.88;;;7.46;64.16
64336;BME280;50672;53.362;-6.240;2023-03-22T07:15:30;99258.06;;;7.46;64.27
64336;BME280;50672;53.362;-6.240;2023-03-22T07:17:59;99272.06;;;7.50;64.16
64336;BME280;50672;53.362;-6.240;2023-03-22T07:20:28;99258.31;;;7.51;64.21
64336;BME280;50672;53.362;-6.240;2023-03-22T07:22:55;99259.63;;;7.56;64.23
64336;BME280;50672;53.362;-6.240;2023-03-22T07:25:21;99247.56;;;7.58;64.19
64336;BME280;50672;53.362;-6.240;2023-03-22T07:27:48;99260.09;;;7.59;64.01
64336;BME280;50672;53.362;-6.240;2023-03-22T07:30:15;99252.19;;;7.64;63.81
64336;BME280;50672;53.362;-6.240;2023-03-22T07:32:42;99247.88;;;7.70;63.94
64336;BME280;50672;53.362;-6.240;2023-03-22T07:35:09;99248.72;;;7.70;63.66
64336;BME280;50672;53.362;-6.240;2023-03-22T07:37:35;99244.16;;;7.71;63.65
64336;BME280;50672;53.362;-6.240;2023-03-22T07:40:03;99251.25;;;7.72;63.62
64336;BME280;50672;53.362;-6.240;2023-03-22T07:42:30;99254.59;;;7.74;63.58
64336;BME280;50672;53.362;-6.240;2023-03-22T07:44:57;99246.25;;;7.76;63.40
64336;BME280;50672;53.362;-6.240;2023-03-22T07:47:24;99249.44;;;7.79;63.40
64336;BME280;50672;53.362;-6.240;2023-03-22T07:50:05;99255.31;;;7.83;63.11
64336;BME280;50672;53.362;-6.240;2023-03-22T07:52:33;99254.72;;;7.87;63.06
64336;BME280;50672;53.362;-6.240;2023-03-22T07:54:59;99251.59;;;7.91;62.97
64336;BME280;50672;53.362;-6.240;2023-03-22T07:57:26;99254.97;;;7.93;63.13
64336;BME280;50672;53.362;-6.240;2023-03-22T07:59:53;99256.06;;;7.98;62.95
64336;BME280;50672;53.362;-6.240;2023-03-22T08:02:20;99253.38;;;8.05;63.02
64336;BME280;50672;53.362;-6.240;2023-03-22T08:04:47;99262.03;;;8.15;62.83
64336;BME280;50672;53.362;-6.240;2023-03-22T08:07:19;99256.47;;;8.24;62.85
64336;BME280;50672;53.362;-6.240;2023-03-22T08:09:46;99247.34;;;8.31;62.84
64336;BME280;50672;53.362;-6.240;2023-03-22T08:12:13;99256.16;;;8.40;62.92
64336;BME280;50672;53.362;-6.240;2023-03-22T08:14:40;99258.47;;;8.43;62.65
64336;BME280;50672;53.362;-6.240;2023-03-22T08:17:07;99257.91;;;8.48;62.50
64336;BME280;50672;53.362;-6.240;2023-03-22T08:19:33;99265.44;;;8.52;62.75
64336;BME280;50672;53.362;-6.240;2023-03-22T08:22:01;99260.25;;;8.58;62.67
64336;BME280;50672;53.362;-6.240;2023-03-22T08:24:27;99251.72;;;8.61;62.34
64336;BME280;50672;53.362;-6.240;2023-03-22T08:26:54;99254.06;;;8.64;62.39
64336;BME280;50672;53.362;-6.240;2023-03-22T08:29:22;99256.97;;;8.69;62.47
64336;BME280;50672;53.362;-6.240;2023-03-22T08:31:50;99244.69;;;8.73;62.42
64336;BME280;50672;53.362;-6.240;2023-03-22T08:34:17;99259.31;;;8.79;62.05
64336;BME280;50672;53.362;-6.240;2023-03-22T08:36:44;99250.00;;;8.88;62.12
64336;BME280;50672;53.362;-6.240;2023-03-22T08:39:11;99252.94;;;9.00;62.22
64336;BME280;50672;53.362;-6.240;2023-03-22T08:41:39;99230.84;;;9.10;61.98
64336;BME280;50672;53.362;-6.240;2023-03-22T08:44:06;99234.66;;;9.22;61.73
64336;BME280;50672;53.362;-6.240;2023-03-22T08:46:32;99238.06;;;9.31;61.58
64336;BME280;50672;53.362;-6.240;2023-03-22T08:48:59;99228.06;;;9.45;61.80
64336;BME280;50672;53.362;-6.240;2023-03-22T08:51:28;99228.50;;;9.62;61.64
64336;BME280;50672;53.362;-6.240;2023-03-22T08:53:56;99218.47;;;9.75;61.22
64336;BME280;50672;53.362;-6.240;2023-03-22T08:56:25;99226.44;;;9.84;61.20
64336;BME280;50672;53.362;-6.240;2023-03-22T08:58:52;99222.88;;;9.90;61.16
64336;BME280;50672;53.362;-6.240;2023-03-22T09:01:26;99211.78;;;9.91;60.59
64336;BME280;50672;53.362;-6.240;2023-03-22T09:03:53;99223.28;;;9.87;60.70
64336;BME280;50672;53.362;-6.240;2023-03-22T09:06:20;99238.13;;;9.91;60.62
64336;BME280;50672;53.362;-6.240;2023-03-22T09:08:46;99220.97;;;9.97;60.38
64336;BME280;50672;53.362;-6.240;2023-03-22T09:11:18;99206.75;;;10.02;60.17
64336;BME280;50672;53.362;-6.240;2023-03-22T09:13:45;99210.72;;;10.06;59.75
64336;BME280;50672;53.362;-6.240;2023-03-22T09:16:12;99214.47;;;10.12;59.64
64336;BME280;50672;53.362;-6.240;2023-03-22T09:18:39;99199.41;;;10.16;59.52
64336;BME280;50672;53.362;-6.240;2023-03-22T09:21:26;99197.94;;;10.26;59.61
64336;BME280;50672;53.362;-6.240;2023-03-22T09:25:20;99193.75;;;10.44;58.94
64336;BME280;50672;53.362;-6.240;2023-03-22T09:28:47;99209.44;;;10.55;59.13
64336;BME280;50672;53.362;-6.240;2023-03-22T09:31:51;99194.97;;;10.62;58.96
64336;BME280;50672;53.362;-6.240;2023-03-22T09:34:19;99190.31;;;10.69;58.59
64336;BME280;50672;53.362;-6.240;2023-03-22T09:36:46;99195.13;;;10.73;58.38
64336;BME280;50672;53.362;-6.240;2023-03-22T09:39:13;99192.81;;;10.77;58.32
64336;BME280;50672;53.362;-6.240;2023-03-22T09:41:48;99184.63;;;10.84;58.50
64336;BME280;50672;53.362;-6.240;2023-03-22T09:44:22;99192.41;;;10.80;58.45
64336;BME280;50672;53.362;-6.240;2023-03-22T09:46:54;99198.25;;;10.77;58.22
64336;BME280;50672;53.362;-6.240;2023-03-22T09:49:33;99201.19;;;10.75;58.05
64336;BME280;50672;53.362;-6.240;2023-03-22T09:52:16;99183.63;;;10.71;57.75
64336;BME280;50672;53.362;-6.240;2023-03-22T09:54:45;99200.81;;;10.72;58.22
64336;BME280;50672;53.362;-6.240;2023-03-22T10:02:54;99202.41;;;10.86;57.70
64336;BME280;50672;53.362;-6.240;2023-03-22T10:05:46;99195.28;;;10.85;57.40
64336;BME280;50672;53.362;-6.240;2023-03-22T10:11:15;99194.28;;;10.73;57.17
64336;BME280;50672;53.362;-6.240;2023-03-22T10:16:28;99182.88;;;11.03;57.31
64336;BME280;50672;53.362;-6.240;2023-03-22T10:19:14;99182.44;;;11.38;57.61
64336;BME280;50672;53.362;-6.240;2023-03-22T10:21:44;99177.53;;;11.78;57.22
64336;BME280;50672;53.362;-6.240;2023-03-22T10:24:27;99174.09;;;12.15;57.28
64336;BME280;50672;53.362;-6.240;2023-03-22T10:26:55;99162.75;;;12.18;56.85
64336;BME280;50672;53.362;-6.240;2023-03-22T10:29:28;99165.84;;;12.22;57.24
64336;BME280;50672;53.362;-6.240;2023-03-22T10:32:11;99172.22;;;12.34;56.88
64336;BME280;50672;53.362;-6.240;2023-03-22T10:34:39;99170.88;;;12.43;56.82
64336;BME280;50672;53.362;-6.240;2023-03-22T10:37:11;99169.97;;;12.50;56.57
64336;BME280;50672;53.362;-6.240;2023-03-22T10:39:44;99168.72;;;12.64;56.14
64336;BME280;50672;53.362;-6.240;2023-03-22T10:42:15;99160.63;;;12.76;56.05
64336;BME280;50672;53.362;-6.240;2023-03-22T10:44:49;99167.31;;;12.80;56.26
64336;BME280;50672;53.362;-6.240;2023-03-22T10:47:26;99149.16;;;12.86;55.92
64336;BME280;50672;53.362;-6.240;2023-03-22T10:49:55;99136.00;;;12.94;55.79
64336;BME280;50672;53.362;-6.240;2023-03-22T10:55:02;99144.16;;;13.13;55.37
64336;BME280;50672;53.362;-6.240;2023-03-22T10:57:30;99139.06;;;13.16;55.31
64336;BME280;50672;53.362;-6.240;2023-03-22T10:59:56;99146.88;;;13.13;55.08
64336;BME280;50672;53.362;-6.240;2023-03-22T11:02:31;99153.38;;;13.30;54.98
64336;BME280;50672;53.362;-6.240;2023-03-22T11:05:01;99143.34;;;13.43;54.73
64336;BME280;50672;53.362;-6.240;2023-03-22T11:07:33;99158.69;;;13.56;54.12
64336;BME280;50672;53.362;-6.240;2023-03-22T11:12:42;99127.47;;;13.63;53.87
64336;BME280;50672;53.362;-6.240;2023-03-22T11:15:26;99147.06;;;13.72;53.91
64336;BME280;50672;53.362;-6.240;2023-03-22T11:17:58;99135.19;;;13.66;53.48
64336;BME280;50672;53.362;-6.240;2023-03-22T11:20:26;99128.75;;;13.73;53.68
64336;BME280;50672;53.362;-6.240;2023-03-22T11:22:59;99138.28;;;13.94;53.42
64336;BME280;50672;53.362;-6.240;2023-03-22T11:25:33;99129.28;;;14.05;53.31
64336;BME280;50672;53.362;-6.240;2023-03-22T11:30:32;99123.28;;;14.20;53.00
64336;BME280;50672;53.362;-6.240;2023-03-22T11:33:18;99117.56;;;14.22;53.02
64336;BME280;50672;53.362;-6.240;2023-03-22T11:35:56;99105.31;;;14.24;52.65
64336;BME280;50672;53.362;-6.240;2023-03-22T11:38:27;99103.72;;;14.64;52.27
64336;BME280;50672;53.362;-6.240;2023-03-22T11:41:00;99111.22;;;14.68;52.33
64336;BME280;50672;53.362;-6.240;2023-03-22T11:43:49;99104.06;;;14.67;51.80
64336;BME280;50672;53.362;-6.240;2023-03-22T11:46:19;99105.63;;;14.51;51.56
64336;BME280;50672;53.362;-6.240;2023-03-22T11:48:49;99116.75;;;14.21;51.92
64336;BME280;50672;53.362;-6.240;2023-03-22T11:51:26;99122.03;;;14.63;51.88
64336;BME280;50672;53.362;-6.240;2023-03-22T11:56:55;99091.16;;;14.80;52.92
64336;BME280;50672;53.362;-6.240;2023-03-22T11:59:26;99084.13;;;15.47;53.03
64336;BME280;50672;53.362;-6.240;2023-03-22T12:01:59;99081.47;;;16.25;52.34
64336;BME280;50672;53.362;-6.240;2023-03-22T12:04:34;99087.25;;;16.90;51.81
64336;BME280;50672;53.362;-6.240;2023-03-22T12:07:09;99077.63;;;17.20;51.18
64336;BME280;50672;53.362;-6.240;2023-03-22T12:12:49;99087.06;;;17.29;49.50
64336;BME280;50672;53.362;-6.240;2023-03-22T12:15:21;99075.72;;;17.53;48.71
64336;BME280;50672;53.362;-6.240;2023-03-22T12:18:33;99094.19;;;17.25;48.44
64336;BME280;50672;53.362;-6.240;2023-03-22T12:20:46;99065.00;;;16.91;48.16
64336;BME280;50672;53.362;-6.240;2023-03-22T12:23:18;99057.44;;;16.82;47.62
64336;BME280;50672;53.362;-6.240;2023-03-22T12:25:49;99076.44;;;16.39;47.37
64336;BME280;50672;53.362;-6.240;2023-03-22T12:28:22;99054.78;;;16.20;47.19
64336;BME280;50672;53.362;-6.240;2023-03-22T12:30:53;99073.50;;;16.46;47.05
64336;BME280;50672;53.362;-6.240;2023-03-22T12:33:28;99065.69;;;16.60;46.61
64336;BME280;50672;53.362;-6.240;2023-03-22T12:35:58;99052.75;;;18.12;46.15
64336;BME280;50672;53.362;-6.240;2023-03-22T12:38:39;99061.41;;;19.36;45.27
64336;BME280;50672;53.362;-6.240;2023-03-22T12:41:34;99052.22;;;18.89;44.44
64336;BME280;50672;53.362;-6.240;2023-03-22T12:44:26;99038.88;;;18.60;43.96
64336;BME280;50672;53.362;-6.240;2023-03-22T12:47:40;99028.75;;;20.05;43.33
64336;BME280;50672;53.362;-6.240;2023-03-22T12:53:21;99017.00;;;23.03;41.58
64336;BME280;50672;53.362;-6.240;2023-03-22T12:55:52;99019.69;;;24.21;40.58
64336;BME280;50672;53.362;-6.240;2023-03-22T12:58:24;99020.03;;;25.20;39.59
64336;BME280;50672;53.362;-6.240;2023-03-22T13:00:55;99025.59;;;25.66;38.66
64336;BME280;50672;53.362;-6.240;2023-03-22T13:03:43;99005.91;;;25.93;37.65
64336;BME280;50672;53.362;-6.240;2023-03-22T13:06:32;99005.88;;;25.53;36.73
64336;BME280;50672;53.362;-6.240;2023-03-22T13:09:19;99002.97;;;25.36;35.80
64336;BME280;50672;53.362;-6.240;2023-03-22T13:14:56;98983.81;;;27.60;34.41
64336;BME280;50672;53.362;-6.240;2023-03-22T13:19:53;98962.38;;;29.13;32.27
64336;BME280;50672;53.362;-6.240;2023-03-22T13:22:28;98960.19;;;29.53;31.67
64336;BME280;50672;53.362;-6.240;2023-03-22T13:25:26;98976.28;;;28.89;30.57
64336;BME280;50672;53.362;-6.240;2023-03-22T13:30:55;98946.72;;;30.04;29.53
64336;BME280;50672;53.362;-6.240;2023-03-22T13:35:56;98951.66;;;30.73;28.52
64336;BME280;50672;53.362;-6.240;2023-03-22T13:38:32;98938.66;;;31.21;27.77
64336;BME280;50672;53.362;-6.240;2023-03-22T13:41:20;98949.38;;;31.31;27.46
64336;BME280;50672;53.362;-6.240;2023-03-22T13:43:49;98959.06;;;31.62;26.91
64336;BME280;50672;53.362;-6.240;2023-03-22T13:56:50;98932.22;;;31.81;24.60
64336;BME280;50672;53.362;-6.240;2023-03-22T14:02:03;98935.47;;;32.86;23.81
64336;BME280;50672;53.362;-6.240;2023-03-22T14:04:49;98942.69;;;31.52;23.28
64336;BME280;50672;53.362;-6.240;2023-03-22T14:10:16;98889.09;;;31.77;23.24
64336;BME280;50672;53.362;-6.240;2023-03-22T14:13:18;98886.47;;;28.73;23.19
64336;BME280;50672;53.362;-6.240;2023-03-22T14:15:53;98882.03;;;27.61;23.19
64336;BME280;50672;53.362;-6.240;2023-03-22T14:18:28;98846.03;;;28.40;23.75
64336;BME280;50672;53.362;-6.240;2023-03-22T14:21:18;98842.53;;;25.66;24.13
64336;BME280;50672;53.362;-6.240;2023-03-22T14:23:53;98858.72;;;24.70;24.56
64336;BME280;50672;53.362;-6.240;2023-03-22T14:27:11;98864.38;;;25.82;24.84
64336;BME280;50672;53.362;-6.240;2023-03-22T14:30:00;98851.69;;;26.42;25.02
64336;BME280;50672;53.362;-6.240;2023-03-22T14:32:28;98857.19;;;25.98;25.12
64336;BME280;50672;53.362;-6.240;2023-03-22T14:35:17;98862.59;;;25.95;25.41
64336;BME280;50672;53.362;-6.240;2023-03-22T14:37:45;98830.38;;;26.46;25.23
64336;BME280;50672;53.362;-6.240;2023-03-22T14:40:26;98820.94;;;26.94;25.19
64336;BME280;50672;53.362;-6.240;2023-03-22T14:42:52;98810.97;;;27.71;25.16
64336;BME280;50672;53.362;-6.240;2023-03-22T14:45:20;98805.72;;;28.62;24.82
64336;BME280;50672;53.362;-6.240;2023-03-22T14:47:47;98788.97;;;28.99;24.42
64336;BME280;50672;53.362;-6.240;2023-03-22T14:50:15;98796.81;;;28.39;24.04
64336;BME280;50672;53.362;-6.240;2023-03-22T14:52:45;98797.97;;;27.96;23.79
64336;BME280;50672;53.362;-6.240;2023-03-22T14:55:21;98822.75;;;28.70;23.56
64336;BME280;50672;53.362;-6.240;2023-03-22T14:57:59;98810.03;;;28.18;23.58